sensor_id;sensor_type;location;lat;lon;timestamp;P1;durP1;ratioP1;P2;durP2;ratioP2
15982;SDS011;14442;50.196;8.096;2023-06-04T00:01:57;0.60;;;0.60;;
15982;SDS011;14442;50.196;8.096;2023-06-04T00:04:26;1.47;;;0.50;;
15982;SDS011;14442;50.196;8.096;2023-06-04T00:06:53;1.13;;;0.50;;
15982;SDS011;14442;50.196;8.096;2023-06-04T00:09:20;0.53;;;0.40;;
15982;SDS011;14442;50.196;8.096;2023-06-04T00:11:47;0.30;;;0.30;;
15982;SDS011;14442;50.196;8.096;2023-06-04T00:14:14;0.77;;;0.37;;
15982;SDS011;14442;50.196;8.096;2023-06-04T00:16:41;0.40;;;0.40;;
15982;SDS011;14442;50.196;8.096;2023-06-04T00:19:08;0.90;;;0.30;;
15982;SDS011;14442;50.196;8.096;2023-06-04T00:21:36;0.53;;;0.53;;
15982;SDS011;14442;50.196;8.096;2023-06-04T00:24:03;0.33;;;0.33;;
15982;SDS011;14442;50.196;8.096;2023-06-04T00:26:30;0.40;;;0.40;;
15982;SDS011;14442;50.196;8.096;2023-06-04T00:28:57;1.13;;;0.60;;
15982;SDS011;14442;50.196;8.096;2023-06-04T00:31:23;1.53;;;0.50;;
15982;SDS011;14442;50.196;8.096;2023-06-04T00:33:51;0.50;;;0.40;;
15982;SDS011;14442;50.196;8.096;2023-06-04T00:36:18;0.47;;;0.43;;
15982;SDS011;14442;50.196;8.096;2023-06-04T00:38:46;1.30;;;0.50;;
15982;SDS011;14442;50.196;8.096;2023-06-04T00:41:13;0.30;;;0.30;;
15982;SDS011;14442;50.196;8.096;2023-06-04T00:43:39;0.30;;;0.30;;
15982;SDS011;14442;50.196;8.096;2023-06-04T00:46:10;0.97;;;0.40;;
15982;SDS011;14442;50.196;8.096;2023-06-04T00:48:43;0.97;;;0.40;;
15982;SDS011;14442;50.196;8.096;2023-06-04T00:51:10;0.80;;;0.40;;
15982;SDS011;14442;50.196;8.096;2023-06-04T00:53:37;0.73;;;0.30;;
15982;SDS011;14442;50.196;8.096;2023-06-04T00:56:06;0.80;;;0.30;;
15982;SDS011;14442;50.196;8.096;2023-06-04T00:58:33;0.40;;;0.30;;
15982;SDS011;14442;50.196;8.096;2023-06-04T01:01:05;0.23;;;0.23;;
15982;SDS011;14442;50.196;8.096;2023-06-04T01:03:36;0.30;;;0.23;;
15982;SDS011;14442;50.196;8.096;2023-06-04T01:06:09;1.03;;;0.40;;
15982;SDS011;14442;50.196;8.096;2023-06-04T01:08:46;0.40;;;0.30;;
15982;SDS011;14442;50.196;8.096;2023-06-04T01:11:15;0.30;;;0.30;;
15982;SDS011;14442;50.196;8.096;2023-06-04T01:13:42;1.13;;;0.30;;
15982;SDS011;14442;50.196;8.096;2023-06-04T01:16:08;0.40;;;0.40;;
15982;SDS011;14442;50.196;8.096;2023-06-04T01:18:37;0.80;;;0.30;;
15982;SDS011;14442;50.196;8.096;2023-06-04T01:21:06;1.17;;;0.27;;
15982;SDS011;14442;50.196;8.096;2023-06-04T01:23:37;0.40;;;0.40;;
15982;SDS011;14442;50.196;8.096;2023-06-04T01:26:08;0.30;;;0.30;;
15982;SDS011;14442;50.196;8.096;2023-06-04T01:28:37;0.30;;;0.30;;
15982;SDS011;14442;50.196;8.096;2023-06-04T01:31:05;0.30;;;0.30;;
15982;SDS011;14442;50.196;8.096;2023-06-04T01:33:33;0.37;;;0.30;;
15982;SDS011;14442;50.196;8.096;2023-06-04T01:36:00;0.30;;;0.30;;
15982;SDS011;14442;50.196;8.096;2023-06-04T01:38:27;0.30;;;0.30;;
15982;SDS011;14442;50.196;8.096;2023-06-04T01:40:54;0.30;;;0.30;;
15982;SDS011;14442;50.196;8.096;2023-06-04T01:43:26;1.07;;;0.40;;
15982;SDS011;14442;50.196;8.096;2023-06-04T01:45:54;0.40;;;0.30;;
15982;SDS011;14442;50.196;8.096;2023-06-04T01:48:21;0.60;;;0.30;;
15982;SDS011;14442;50.196;8.096;2023-06-04T01:50:48;0.40;;;0.40;;
15982;SDS011;14442;50.196;8.096;2023-06-04T01:53:15;0.57;;;0.40;;
15982;SDS011;14442;50.196;8.096;2023-06-04T01:55:42;0.30;;;0.30;;
15982;SDS011;14442;50.196;8.096;2023-06-04T01:58:09;0.30;;;0.30;;
15982;SDS011;14442;50.196;8.096;2023-06-04T02:00:36;0.40;;;0.40;;
15982;SDS011;14442;50.196;8.096;2023-06-04T02:03:04;0.50;;;0.30;;
15982;SDS011;14442;50.196;8.096;2023-06-04T02:05:30;0.60;;;0.20;;
15982;SDS011;14442;50.196;8.096;2023-06-04T02:07:57;0.20;;;0.20;;
15982;SDS011;14442;50.196;8.096;2023-06-04T02:10:26;0.33;;;0.30;;
15982;SDS011;14442;50.196;8.096;2023-06-04T02:12:54;0.43;;;0.33;;
15982;SDS011;14442;50.196;8.096;2023-06-04T02:15:22;0.40;;;0.30;;
15982;SDS011;14442;50.196;8.096;2023-06-04T02:17:49;0.23;;;0.23;;
15982;SDS011;14442;50.196;8.096;2023-06-04T02:20:17;0.20;;;0.20;;
15982;SDS011;14442;50.196;8.096;2023-06-04T02:22:44;0.10;;;0.10;;
15982;SDS011;14442;50.196;8.096;2023-06-04T02:25:11;0.27;;;0.27;;
15982;SDS011;14442;50.196;8.096;2023-06-04T02:27:37;0.67;;;0.40;;
15982;SDS011;14442;50.196;8.096;2023-06-04T02:30:05;0.37;;;0.27;;
15982;SDS011;14442;50.196;8.096;2023-06-04T02:32:32;0.83;;;0.40;;
15982;SDS011;14442;50.196;8.096;2023-06-04T02:35:01;0.30;;;0.30;;
15982;SDS011;14442;50.196;8.096;2023-06-04T02:37:29;0.10;;;0.10;;
15982;SDS011;14442;50.196;8.096;2023-06-04T02:39:56;0.30;;;0.30;;
15982;SDS011;14442;50.196;8.096;2023-06-04T02:42:23;0.30;;;0.30;;
15982;SDS011;14442;50.196;8.096;2023-06-04T02:44:49;0.40;;;0.37;;
15982;SDS011;14442;50.196;8.096;2023-06-04T02:47:16;0.67;;;0.37;;
15982;SDS011;14442;50.196;8.096;2023-06-04T02:49:44;0.30;;;0.30;;
15982;SDS011;14442;50.196;8.096;2023-06-04T02:52:11;1.03;;;0.30;;
15982;SDS011;14442;50.196;8.096;2023-06-04T02:54:39;0.20;;;0.20;;
15982;SDS011;14442;50.196;8.096;2023-06-04T02:57:06;0.30;;;0.30;;
15982;SDS011;14442;50.196;8.096;2023-06-04T02:59:33;0.33;;;0.20;;
15982;SDS011;14442;50.196;8.096;2023-06-04T03:02:00;0.67;;;0.30;;
15982;SDS011;14442;50.196;8.096;2023-06-04T03:04:27;0.23;;;0.20;;
15982;SDS011;14442;50.196;8.096;2023-06-04T03:07:01;0.60;;;0.43;;
15982;SDS011;14442;50.196;8.096;2023-06-04T03:09:29;0.20;;;0.20;;
15982;SDS011;14442;50.196;8.096;2023-06-04T03:11:58;0.23;;;0.23;;
15982;SDS011;14442;50.196;8.096;2023-06-04T03:14:26;0.70;;;0.30;;
15982;SDS011;14442;50.196;8.096;2023-06-04T03:16:57;0.30;;;0.30;;
15982;SDS011;14442;50.196;8.096;2023-06-04T03:19:26;0.40;;;0.40;;
15982;SDS011;14442;50.196;8.096;2023-06-04T03:21:52;0.87;;;0.40;;
15982;SDS011;14442;50.196;8.096;2023-06-04T03:24:19;0.20;;;0.20;;
15982;SDS011;14442;50.196;8.096;2023-06-04T03:26:46;0.30;;;0.30;;
15982;SDS011;14442;50.196;8.096;2023-06-04T03:29:14;0.60;;;0.30;;
15982;SDS011;14442;50.196;8.096;2023-06-04T03:31:41;0.20;;;0.20;;
15982;SDS011;14442;50.196;8.096;2023-06-04T03:34:10;0.20;;;0.20;;
15982;SDS011;14442;50.196;8.096;2023-06-04T03:36:37;0.43;;;0.30;;
15982;SDS011;14442;50.196;8.096;2023-06-04T03:39:03;0.20;;;0.20;;
15982;SDS011;14442;50.196;8.096;2023-06-04T03:41:30;0.40;;;0.40;;
15982;SDS011;14442;50.196;8.096;2023-06-04T03:43:57;0.20;;;0.20;;
15982;SDS011;14442;50.196;8.096;2023-06-04T03:46:25;0.20;;;0.20;;
15982;SDS011;14442;50.196;8.096;2023-06-04T03:48:54;0.77;;;0.50;;
15982;SDS011;14442;50.196;8.096;2023-06-04T03:51:21;0.40;;;0.20;;
15982;SDS011;14442;50.196;8.096;2023-06-04T03:53:47;0.30;;;0.30;;
15982;SDS011;14442;50.196;8.096;2023-06-04T03:56:14;0.30;;;0.30;;
15982;SDS011;14442;50.196;8.096;2023-06-04T03:58:41;0.40;;;0.20;;
15982;SDS011;14442;50.196;8.096;2023-06-04T04:01:08;0.33;;;0.33;;
15982;SDS011;14442;50.196;8.096;2023-06-04T04:03:36;0.20;;;0.20;;
15982;SDS011;14442;50.196;8.096;2023-06-04T04:06:03;0.20;;;0.20;;
15982;SDS011;14442;50.196;8.096;2023-06-04T04:08:30;0.20;;;0.20;;
15982;SDS011;14442;50.196;8.096;2023-06-04T04:10:57;0.30;;;0.27;;
15982;SDS011;14442;50.196;8.096;2023-06-04T04:13:23;0.30;;;0.30;;
15982;SDS011;14442;50.196;8.096;2023-06-04T04:15:50;0.30;;;0.30;;
15982;SDS011;14442;50.196;8.096;2023-06-04T04:18:17;2.33;;;0.30;;
15982;SDS011;14442;50.196;8.096;2023-06-04T04:20:46;0.40;;;0.40;;
15982;SDS011;14442;50.196;8.096;2023-06-04T04:23:13;0.20;;;0.20;;
15982;SDS011;14442;50.196;8.096;2023-06-04T04:25:42;0.30;;;0.30;;
15982;SDS011;14442;50.196;8.096;2023-06-04T04:28:09;0.27;;;0.27;;
15982;SDS011;14442;50.196;8.096;2023-06-04T04:30:36;0.20;;;0.20;;
15982;SDS011;14442;50.196;8.096;2023-06-04T04:33:04;0.20;;;0.20;;
15982;SDS011;14442;50.196;8.096;2023-06-04T04:35:31;1.60;;;0.50;;
15982;SDS011;14442;50.196;8.096;2023-06-04T04:38:00;0.80;;;0.30;;
15982;SDS011;14442;50.196;8.096;2023-06-04T04:40:28;0.30;;;0.30;;
15982;SDS011;14442;50.196;8.096;2023-06-04T04:42:55;0.30;;;0.30;;
15982;SDS011;14442;50.196;8.096;2023-06-04T04:45:22;1.27;;;0.40;;
15982;SDS011;14442;50.196;8.096;2023-06-04T04:47:48;0.20;;;0.20;;
15982;SDS011;14442;50.196;8.096;2023-06-04T04:50:15;0.30;;;0.20;;
15982;SDS011;14442;50.196;8.096;2023-06-04T04:52:42;0.40;;;0.40;;
15982;SDS011;14442;50.196;8.096;2023-06-04T04:55:10;0.17;;;0.17;;
15982;SDS011;14442;50.196;8.096;2023-06-04T04:57:38;2.00;;;0.40;;
15982;SDS011;14442;50.196;8.096;2023-06-04T05:00:05;0.20;;;0.20;;
15982;SDS011;14442;50.196;8.096;2023-06-04T05:02:34;1.30;;;0.20;;
15982;SDS011;14442;50.196;8.096;2023-06-04T05:05:01;0.73;;;0.20;;
15982;SDS011;14442;50.196;8.096;2023-06-04T05:07:27;0.20;;;0.20;;
15982;SDS011;14442;50.196;8.096;2023-06-04T05:09:54;0.70;;;0.30;;
15982;SDS011;14442;50.196;8.096;2023-06-04T05:12:24;0.17;;;0.17;;
15982;SDS011;14442;50.196;8.096;2023-06-04T05:14:51;0.30;;;0.30;;
15982;SDS011;14442;50.196;8.096;2023-06-04T05:17:18;0.50;;;0.30;;
15982;SDS011;14442;50.196;8.096;2023-06-04T05:19:46;0.30;;;0.30;;
15982;SDS011;14442;50.196;8.096;2023-06-04T05:22:13;0.20;;;0.20;;
15982;SDS011;14442;50.196;8.096;2023-06-04T05:24:42;1.33;;;0.30;;
15982;SDS011;14442;50.196;8.096;2023-06-04T05:27:09;0.60;;;0.30;;
15982;SDS011;14442;50.196;8.096;2023-06-04T05:29:37;0.60;;;0.30;;
15982;SDS011;14442;50.196;8.096;2023-06-04T05:32:05;0.30;;;0.30;;
15982;SDS011;14442;50.196;8.096;2023-06-04T05:34:32;0.20;;;0.20;;
15982;SDS011;14442;50.196;8.096;2023-06-04T05:37:01;0.30;;;0.30;;
15982;SDS011;14442;50.196;8.096;2023-06-04T05:39:29;0.40;;;0.40;;
15982;SDS011;14442;50.196;8.096;2023-06-04T05:41:55;0.30;;;0.30;;
15982;SDS011;14442;50.196;8.096;2023-06-04T05:44:22;0.20;;;0.20;;
15982;SDS011;14442;50.196;8.096;2023-06-04T05:46:50;0.27;;;0.27;;
15982;SDS011;14442;50.196;8.096;2023-06-04T05:49:17;0.30;;;0.20;;
15982;SDS011;14442;50.196;8.096;2023-06-04T05:51:44;0.50;;;0.40;;
15982;SDS011;14442;50.196;8.096;2023-06-04T05:54:11;0.20;;;0.20;;
15982;SDS011;14442;50.196;8.096;2023-06-04T05:56:38;0.30;;;0.30;;
15982;SDS011;14442;50.196;8.096;2023-06-04T05:59:05;0.30;;;0.30;;
15982;SDS011;14442;50.196;8.096;2023-06-04T06:01:31;0.20;;;0.20;;
15982;SDS011;14442;50.196;8.096;2023-06-04T06:03:59;0.20;;;0.20;;
15982;SDS011;14442;50.196;8.096;2023-06-04T06:06:26;0.50;;;0.40;;
15982;SDS011;14442;50.196;8.096;2023-06-04T06:08:53;0.40;;;0.40;;
15982;SDS011;14442;50.196;8.096;2023-06-04T06:11:20;0.40;;;0.37;;
15982;SDS011;14442;50.196;8.096;2023-06-04T06:13:47;0.20;;;0.20;;
15982;SDS011;14442;50.196;8.096;2023-06-04T06:16:13;0.30;;;0.30;;
15982;SDS011;14442;50.196;8.096;2023-06-04T06:18:42;0.20;;;0.20;;
15982;SDS011;14442;50.196;8.096;2023-06-04T06:21:10;0.30;;;0.23;;
15982;SDS011;14442;50.196;8.096;2023-06-04T06:23:36;0.23;;;0.23;;
15982;SDS011;14442;50.196;8.096;2023-06-04T06:26:03;0.97;;;0.30;;
15982;SDS011;14442;50.196;8.096;2023-06-04T06:28:33;0.20;;;0.20;;
15982;SDS011;14442;50.196;8.096;2023-06-04T06:31:00;0.30;;;0.30;;
15982;SDS011;14442;50.196;8.096;2023-06-04T06:33:27;0.73;;;0.30;;
15982;SDS011;14442;50.196;8.096;2023-06-04T06:35:54;4.63;;;0.47;;
15982;SDS011;14442;50.196;8.096;2023-06-04T06:38:22;1.33;;;0.40;;
15982;SDS011;14442;50.196;8.096;2023-06-04T06:40:49;3.53;;;0.53;;
15982;SDS011;14442;50.196;8.096;2023-06-04T06:43:15;8.43;;;0.93;;
15982;SDS011;14442;50.196;8.096;2023-06-04T06:45:42;9.53;;;1.00;;
15982;SDS011;14442;50.196;8.096;2023-06-04T06:48:09;8.43;;;1.03;;
15982;SDS011;14442;50.196;8.096;2023-06-04T06:50:36;11.13;;;1.30;;
15982;SDS011;14442;50.196;8.096;2023-06-04T06:53:02;9.13;;;0.80;;
15982;SDS011;14442;50.196;8.096;2023-06-04T06:55:30;2.07;;;0.50;;
15982;SDS011;14442;50.196;8.096;2023-06-04T06:57:57;3.47;;;0.33;;
15982;SDS011;14442;50.196;8.096;2023-06-04T07:00:25;5.07;;;0.50;;
15982;SDS011;14442;50.196;8.096;2023-06-04T07:02:52;8.03;;;0.57;;
15982;SDS011;14442;50.196;8.096;2023-06-04T07:05:19;3.77;;;0.60;;
15982;SDS011;14442;50.196;8.096;2023-06-04T07:07:46;2.77;;;0.87;;
15982;SDS011;14442;50.196;8.096;2023-06-04T07:10:13;3.57;;;0.57;;
15982;SDS011;14442;50.196;8.096;2023-06-04T07:12:41;4.67;;;0.70;;
15982;SDS011;14442;50.196;8.096;2023-06-04T07:15:08;4.67;;;0.70;;
15982;SDS011;14442;50.196;8.096;2023-06-04T07:17:35;1.33;;;0.60;;
15982;SDS011;14442;50.196;8.096;2023-06-04T07:20:02;4.73;;;0.67;;
15982;SDS011;14442;50.196;8.096;2023-06-04T07:22:31;0.30;;;0.30;;
15982;SDS011;14442;50.196;8.096;2023-06-04T07:24:58;4.33;;;0.50;;
15982;SDS011;14442;50.196;8.096;2023-06-04T07:27:25;4.07;;;0.50;;
15982;SDS011;14442;50.196;8.096;2023-06-04T07:29:53;2.47;;;0.50;;
15982;SDS011;14442;50.196;8.096;2023-06-04T07:32:20;2.97;;;0.60;;
15982;SDS011;14442;50.196;8.096;2023-06-04T07:34:47;4.73;;;1.00;;
15982;SDS011;14442;50.196;8.096;2023-06-04T07:37:13;3.63;;;1.10;;
15982;SDS011;14442;50.196;8.096;2023-06-04T07:39:40;10.77;;;1.27;;
15982;SDS011;14442;50.196;8.096;2023-06-04T07:42:07;10.60;;;1.07;;
15982;SDS011;14442;50.196;8.096;2023-06-04T07:44:34;11.40;;;0.90;;
15982;SDS011;14442;50.196;8.096;2023-06-04T07:47:04;15.47;;;1.23;;
15982;SDS011;14442;50.196;8.096;2023-06-04T07:49:31;16.43;;;1.60;;
15982;SDS011;14442;50.196;8.096;2023-06-04T07:51:58;15.10;;;2.10;;
15982;SDS011;14442;50.196;8.096;2023-06-04T07:54:25;8.93;;;1.23;;
15982;SDS011;14442;50.196;8.096;2023-06-04T07:56:52;12.70;;;1.13;;
15982;SDS011;14442;50.196;8.096;2023-06-04T07:59:21;8.20;;;1.30;;
15982;SDS011;14442;50.196;8.096;2023-06-04T08:01:49;11.70;;;1.60;;
15982;SDS011;14442;50.196;8.096;2023-06-04T08:04:17;11.03;;;1.33;;
15982;SDS011;14442;50.196;8.096;2023-06-04T08:06:44;11.50;;;1.60;;
15982;SDS011;14442;50.196;8.096;2023-06-04T08:09:11;7.40;;;1.43;;
15982;SDS011;14442;50.196;8.096;2023-06-04T08:11:38;9.87;;;1.50;;
15982;SDS011;14442;50.196;8.096;2023-06-04T08:14:07;12.17;;;1.60;;
15982;SDS011;14442;50.196;8.096;2023-06-04T08:16:33;8.07;;;1.60;;
15982;SDS011;14442;50.196;8.096;2023-06-04T08:19:00;10.07;;;1.23;;
15982;SDS011;14442;50.196;8.096;2023-06-04T08:21:28;6.20;;;1.43;;
15982;SDS011;14442;50.196;8.096;2023-06-04T08:23:55;4.93;;;1.43;;
15982;SDS011;14442;50.196;8.096;2023-06-04T08:26:24;6.77;;;1.27;;
15982;SDS011;14442;50.196;8.096;2023-06-04T08:28:51;8.87;;;1.40;;
15982;SDS011;14442;50.196;8.096;2023-06-04T08:31:17;2.20;;;1.03;;
15982;SDS011;14442;50.196;8.096;2023-06-04T08:33:45;6.50;;;1.27;;
15982;SDS011;14442;50.196;8.096;2023-06-04T08:36:12;8.37;;;1.00;;
15982;SDS011;14442;50.196;8.096;2023-06-04T08:38:41;4.03;;;1.30;;
15982;SDS011;14442;50.196;8.096;2023-06-04T08:41:10;5.97;;;1.40;;
15982;SDS011;14442;50.196;8.096;2023-06-04T08:43:41;4.90;;;1.03;;
15982;SDS011;14442;50.196;8.096;2023-06-04T08:46:09;9.07;;;1.20;;
15982;SDS011;14442;50.196;8.096;2023-06-04T08:48:37;5.83;;;1.17;;
15982;SDS011;14442;50.196;8.096;2023-06-04T08:51:05;5.87;;;1.17;;
15982;SDS011;14442;50.196;8.096;2023-06-04T08:53:34;3.43;;;1.03;;
15982;SDS011;14442;50.196;8.096;2023-06-04T08:56:02;7.53;;;1.10;;
15982;SDS011;14442;50.196;8.096;2023-06-04T08:58:30;6.10;;;1.00;;
15982;SDS011;14442;50.196;8.096;2023-06-04T09:00:58;8.13;;;1.17;;
15982;SDS011;14442;50.196;8.096;2023-06-04T09:03:26;8.70;;;1.60;;
15982;SDS011;14442;50.196;8.096;2023-06-04T09:05:56;9.40;;;1.13;;
15982;SDS011;14442;50.196;8.096;2023-06-04T09:08:24;8.33;;;1.50;;
15982;SDS011;14442;50.196;8.096;2023-06-04T09:10:53;5.03;;;1.20;;
15982;SDS011;14442;50.196;8.096;2023-06-04T09:13:22;27.03;;;2.60;;
15982;SDS011;14442;50.196;8.096;2023-06-04T09:16:00;17.50;;;1.97;;
15982;SDS011;14442;50.196;8.096;2023-06-04T09:18:26;19.20;;;2.40;;
15982;SDS011;14442;50.196;8.096;2023-06-04T09:21:03;12.00;;;1.80;;
15982;SDS011;14442;50.196;8.096;2023-06-04T09:23:30;19.07;;;2.33;;
15982;SDS011;14442;50.196;8.096;2023-06-04T09:26:05;19.33;;;1.90;;
15982;SDS011;14442;50.196;8.096;2023-06-04T09:28:34;7.23;;;1.70;;
15982;SDS011;14442;50.196;8.096;2023-06-04T09:31:01;16.47;;;1.70;;
15982;SDS011;14442;50.196;8.096;2023-06-04T09:33:28;11.60;;;1.77;;
15982;SDS011;14442;50.196;8.096;2023-06-04T09:35:55;9.63;;;1.83;;
15982;SDS011;14442;50.196;8.096;2023-06-04T09:38:22;12.67;;;1.30;;
15982;SDS011;14442;50.196;8.096;2023-06-04T09:40:49;11.17;;;1.67;;
15982;SDS011;14442;50.196;8.096;2023-06-04T09:43:22;12.23;;;1.30;;
15982;SDS011;14442;50.196;8.096;2023-06-04T09:45:50;4.87;;;1.70;;
15982;SDS011;14442;50.196;8.096;2023-06-04T09:48:21;9.73;;;1.73;;
15982;SDS011;14442;50.196;8.096;2023-06-04T09:50:48;2.53;;;1.20;;
15982;SDS011;14442;50.196;8.096;2023-06-04T09:53:15;7.03;;;1.43;;
15982;SDS011;14442;50.196;8.096;2023-06-04T09:55:42;8.87;;;1.83;;
15982;SDS011;14442;50.196;8.096;2023-06-04T09:58:09;8.23;;;1.40;;
15982;SDS011;14442;50.196;8.096;2023-06-04T10:00:37;5.50;;;1.23;;
15982;SDS011;14442;50.196;8.096;2023-06-04T10:03:06;5.23;;;1.60;;
15982;SDS011;14442;50.196;8.096;2023-06-04T10:05:35;2.50;;;1.33;;
15982;SDS011;14442;50.196;8.096;2023-06-04T10:08:03;8.53;;;1.30;;
15982;SDS011;14442;50.196;8.096;2023-06-04T10:10:34;12.23;;;1.83;;
15982;SDS011;14442;50.196;8.096;2023-06-04T10:13:04;7.73;;;1.57;;
15982;SDS011;14442;50.196;8.096;2023-06-04T10:15:33;9.57;;;1.70;;
15982;SDS011;14442;50.196;8.096;2023-06-04T10:18:02;8.80;;;1.83;;
15982;SDS011;14442;50.196;8.096;2023-06-04T10:20:31;9.77;;;1.97;;
15982;SDS011;14442;50.196;8.096;2023-06-04T10:22:58;6.77;;;1.70;;
15982;SDS011;14442;50.196;8.096;2023-06-04T10:25:26;4.67;;;1.17;;
15982;SDS011;14442;50.196;8.096;2023-06-04T10:27:54;2.97;;;1.20;;
15982;SDS011;14442;50.196;8.096;2023-06-04T10:30:23;7.60;;;1.27;;
15982;SDS011;14442;50.196;8.096;2023-06-04T10:32:50;7.00;;;1.20;;
15982;SDS011;14442;50.196;8.096;2023-06-04T10:35:17;3.03;;;1.13;;
15982;SDS011;14442;50.196;8.096;2023-06-04T10:37:45;6.77;;;1.40;;
15982;SDS011;14442;50.196;8.096;2023-06-04T10:40:13;7.37;;;1.20;;
15982;SDS011;14442;50.196;8.096;2023-06-04T10:42:40;5.57;;;1.20;;
15982;SDS011;14442;50.196;8.096;2023-06-04T10:45:08;6.70;;;1.50;;
15982;SDS011;14442;50.196;8.096;2023-06-04T10:47:37;3.83;;;1.13;;
15982;SDS011;14442;50.196;8.096;2023-06-04T10:50:06;2.80;;;1.13;;
15982;SDS011;14442;50.196;8.096;2023-06-04T10:52:34;6.60;;;1.47;;
15982;SDS011;14442;50.196;8.096;2023-06-04T10:55:04;2.83;;;1.03;;
15982;SDS011;14442;50.196;8.096;2023-06-04T10:57:33;14.20;;;2.40;;
15982;SDS011;14442;50.196;8.096;2023-06-04T11:00:00;6.77;;;0.77;;
15982;SDS011;14442;50.196;8.096;2023-06-04T11:02:28;3.63;;;1.10;;
15982;SDS011;14442;50.196;8.096;2023-06-04T11:04:59;1.70;;;0.97;;
15982;SDS011;14442;50.196;8.096;2023-06-04T11:07:28;6.00;;;1.17;;
15982;SDS011;14442;50.196;8.096;2023-06-04T11:09:55;7.10;;;1.17;;
15982;SDS011;14442;50.196;8.096;2023-06-04T11:12:23;3.67;;;1.30;;
15982;SDS011;14442;50.196;8.096;2023-06-04T11:14:53;6.37;;;1.43;;
15982;SDS011;14442;50.196;8.096;2023-06-04T11:17:20;3.37;;;0.70;;
15982;SDS011;14442;50.196;8.096;2023-06-04T11:19:47;1.93;;;0.73;;
15982;SDS011;14442;50.196;8.096;2023-06-04T11:22:14;7.37;;;1.17;;
15982;SDS011;14442;50.196;8.096;2023-06-04T11:24:41;8.97;;;1.67;;
15982;SDS011;14442;50.196;8.096;2023-06-04T11:27:08;4.13;;;1.37;;
15982;SDS011;14442;50.196;8.096;2023-06-04T11:29:36;4.43;;;1.10;;
15982;SDS011;14442;50.196;8.096;2023-06-04T11:32:03;2.13;;;0.87;;
15982;SDS011;14442;50.196;8.096;2023-06-04T11:34:31;5.83;;;1.30;;
15982;SDS011;14442;50.196;8.096;2023-06-04T11:37:07;2.67;;;1.10;;
15982;SDS011;14442;50.196;8.096;2023-06-04T11:39:34;2.57;;;0.87;;
15982;SDS011;14442;50.196;8.096;2023-06-04T11:42:04;2.83;;;0.77;;
15982;SDS011;14442;50.196;8.096;2023-06-04T11:44:32;2.60;;;1.17;;
15982;SDS011;14442;50.196;8.096;2023-06-04T11:47:00;1.90;;;0.80;;
15982;SDS011;14442;50.196;8.096;2023-06-04T11:49:31;2.90;;;0.73;;
15982;SDS011;14442;50.196;8.096;2023-06-04T11:52:00;2.93;;;1.20;;
15982;SDS011;14442;50.196;8.096;2023-06-04T11:54:28;4.30;;;1.20;;
15982;SDS011;14442;50.196;8.096;2023-06-04T11:56:55;4.10;;;0.87;;
15982;SDS011;14442;50.196;8.096;2023-06-04T11:59:22;1.30;;;1.07;;
15982;SDS011;14442;50.196;8.096;2023-06-04T12:01:49;2.83;;;1.00;;
15982;SDS011;14442;50.196;8.096;2023-06-04T12:04:17;1.03;;;0.80;;
15982;SDS011;14442;50.196;8.096;2023-06-04T12:06:51;3.23;;;0.80;;
15982;SDS011;14442;50.196;8.096;2023-06-04T12:09:22;4.73;;;0.80;;
15982;SDS011;14442;50.196;8.096;2023-06-04T12:11:57;4.43;;;0.80;;
15982;SDS011;14442;50.196;8.096;2023-06-04T12:14:24;2.60;;;0.93;;
15982;SDS011;14442;50.196;8.096;2023-06-04T12:16:54;2.90;;;0.57;;
15982;SDS011;14442;50.196;8.096;2023-06-04T12:19:23;1.73;;;0.80;;
15982;SDS011;14442;50.196;8.096;2023-06-04T12:22:00;1.67;;;0.73;;
15982;SDS011;14442;50.196;8.096;2023-06-04T12:24:28;1.33;;;0.70;;
15982;SDS011;14442;50.196;8.096;2023-06-04T12:27:02;0.87;;;0.53;;
15982;SDS011;14442;50.196;8.096;2023-06-04T12:29:30;2.83;;;0.87;;
15982;SDS011;14442;50.196;8.096;2023-06-04T12:32:04;3.40;;;0.70;;
15982;SDS011;14442;50.196;8.096;2023-06-04T12:34:35;1.80;;;0.73;;
15982;SDS011;14442;50.196;8.096;2023-06-04T12:37:02;1.90;;;0.80;;
15982;SDS011;14442;50.196;8.096;2023-06-04T12:39:32;4.40;;;0.50;;
15982;SDS011;14442;50.196;8.096;2023-06-04T12:41:58;2.27;;;0.70;;
15982;SDS011;14442;50.196;8.096;2023-06-04T12:44:25;2.67;;;0.60;;
15982;SDS011;14442;50.196;8.096;2023-06-04T12:46:52;1.27;;;0.40;;
15982;SDS011;14442;50.196;8.096;2023-06-04T12:49:19;2.13;;;0.63;;
15982;SDS011;14442;50.196;8.096;2023-06-04T12:51:47;1.63;;;0.67;;
15982;SDS011;14442;50.196;8.096;2023-06-04T12:54:14;1.80;;;0.60;;
15982;SDS011;14442;50.196;8.096;2023-06-04T12:56:40;3.73;;;0.80;;
15982;SDS011;14442;50.196;8.096;2023-06-04T12:59:09;5.30;;;0.70;;
15982;SDS011;14442;50.196;8.096;2023-06-04T13:01:36;3.10;;;0.50;;
15982;SDS011;14442;50.196;8.096;2023-06-04T13:04:03;4.37;;;0.80;;
15982;SDS011;14442;50.196;8.096;2023-06-04T13:06:30;4.30;;;1.13;;
15982;SDS011;14442;50.196;8.096;2023-06-04T13:08:58;4.53;;;0.60;;
15982;SDS011;14442;50.196;8.096;2023-06-04T13:11:25;3.37;;;0.80;;
15982;SDS011;14442;50.196;8.096;2023-06-04T13:13:51;2.17;;;0.40;;
15982;SDS011;14442;50.196;8.096;2023-06-04T13:16:18;2.87;;;0.90;;
15982;SDS011;14442;50.196;8.096;2023-06-04T13:18:45;3.13;;;0.53;;
15982;SDS011;14442;50.196;8.096;2023-06-04T13:21:12;1.90;;;0.70;;
15982;SDS011;14442;50.196;8.096;2023-06-04T13:23:38;1.90;;;0.60;;
15982;SDS011;14442;50.196;8.096;2023-06-04T13:26:06;2.87;;;0.70;;
15982;SDS011;14442;50.196;8.096;2023-06-04T13:28:34;12.07;;;1.00;;
15982;SDS011;14442;50.196;8.096;2023-06-04T13:31:01;2.20;;;0.70;;
15982;SDS011;14442;50.196;8.096;2023-06-04T13:33:27;4.07;;;0.80;;
15982;SDS011;14442;50.196;8.096;2023-06-04T13:35:54;3.90;;;0.67;;
15982;SDS011;14442;50.196;8.096;2023-06-04T13:38:21;9.90;;;1.43;;
15982;SDS011;14442;50.196;8.096;2023-06-04T13:40:47;10.20;;;1.57;;
15982;SDS011;14442;50.196;8.096;2023-06-04T13:43:16;7.57;;;1.13;;
15982;SDS011;14442;50.196;8.096;2023-06-04T13:45:42;7.73;;;1.00;;
15982;SDS011;14442;50.196;8.096;2023-06-04T13:48:10;7.80;;;0.90;;
15982;SDS011;14442;50.196;8.096;2023-06-04T13:50:37;3.00;;;0.83;;
15982;SDS011;14442;50.196;8.096;2023-06-04T13:53:04;6.50;;;1.07;;
15982;SDS011;14442;50.196;8.096;2023-06-04T13:55:31;4.77;;;0.63;;
15982;SDS011;14442;50.196;8.096;2023-06-04T13:57:58;2.10;;;0.77;;
15982;SDS011;14442;50.196;8.096;2023-06-04T14:00:26;4.50;;;0.90;;
15982;SDS011;14442;50.196;8.096;2023-06-04T14:02:54;7.57;;;1.60;;
15982;SDS011;14442;50.196;8.096;2023-06-04T14:05:21;4.77;;;1.60;;
15982;SDS011;14442;50.196;8.096;2023-06-04T14:07:48;11.77;;;2.30;;
15982;SDS011;14442;50.196;8.096;2023-06-04T14:10:15;11.63;;;2.60;;
15982;SDS011;14442;50.196;8.096;2023-06-04T14:12:42;18.60;;;4.17;;
15982;SDS011;14442;50.196;8.096;2023-06-04T14:15:09;15.83;;;4.77;;
15982;SDS011;14442;50.196;8.096;2023-06-04T14:17:38;15.73;;;3.70;;
15982;SDS011;14442;50.196;8.096;2023-06-04T14:20:05;13.87;;;3.67;;
15982;SDS011;14442;50.196;8.096;2023-06-04T14:22:33;16.43;;;3.27;;
15982;SDS011;14442;50.196;8.096;2023-06-04T14:25:01;11.27;;;3.03;;
15982;SDS011;14442;50.196;8.096;2023-06-04T14:27:28;11.77;;;3.50;;
15982;SDS011;14442;50.196;8.096;2023-06-04T14:29:54;10.73;;;3.70;;
15982;SDS011;14442;50.196;8.096;2023-06-04T14:32:22;15.13;;;4.83;;
15982;SDS011;14442;50.196;8.096;2023-06-04T14:34:50;13.00;;;3.77;;
15982;SDS011;14442;50.196;8.096;2023-06-04T14:37:17;11.27;;;3.63;;
15982;SDS011;14442;50.196;8.096;2023-06-04T14:39:44;7.87;;;2.97;;
15982;SDS011;14442;50.196;8.096;2023-06-04T14:42:11;11.00;;;3.37;;
15982;SDS011;14442;50.196;8.096;2023-06-04T14:44:38;22.37;;;3.50;;
15982;SDS011;14442;50.196;8.096;2023-06-04T14:47:05;8.30;;;2.77;;
15982;SDS011;14442;50.196;8.096;2023-06-04T14:49:31;11.57;;;2.77;;